sensor_id;sensor_type;location;lat;lon;timestamp;P1;durP1;ratioP1;P2;durP2;ratioP2
5805;SDS011;2929;50.810;8.342;2022-08-21T00:01:30;12.23;;;7.93;;
5805;SDS011;2929;50.810;8.342;2022-08-21T00:03:57;11.70;;;7.80;;
5805;SDS011;2929;50.810;8.342;2022-08-21T00:06:29;13.30;;;8.07;;
5805;SDS011;2929;50.810;8.342;2022-08-21T00:08:58;11.77;;;8.43;;
5805;SDS011;2929;50.810;8.342;2022-08-21T00:11:24;12.03;;;7.97;;
5805;SDS011;2929;50.810;8.342;2022-08-21T00:13:52;10.70;;;8.03;;
5805;SDS011;2929;50.810;8.342;2022-08-21T00:16:19;13.57;;;7.77;;
5805;SDS011;2929;50.810;8.342;2022-08-21T00:18:48;10.90;;;7.93;;
5805;SDS011;2929;50.810;8.342;2022-08-21T00:21:15;12.83;;;8.23;;
5805;SDS011;2929;50.810;8.342;2022-08-21T00:23:42;16.70;;;8.90;;
5805;SDS011;2929;50.810;8.342;2022-08-21T00:26:09;12.07;;;8.10;;
5805;SDS011;2929;50.810;8.342;2022-08-21T00:28:37;12.47;;;8.43;;
5805;SDS011;2929;50.810;8.342;2022-08-21T00:31:04;17.70;;;9.77;;
5805;SDS011;2929;50.810;8.342;2022-08-21T00:33:31;20.13;;;8.40;;
5805;SDS011;2929;50.810;8.342;2022-08-21T00:36:00;8.90;;;7.67;;
5805;SDS011;2929;50.810;8.342;2022-08-21T00:38:28;9.90;;;7.60;;
5805;SDS011;2929;50.810;8.342;2022-08-21T00:40:56;16.83;;;8.30;;
5805;SDS011;2929;50.810;8.342;2022-08-21T00:43:26;11.97;;;8.50;;
5805;SDS011;2929;50.810;8.342;2022-08-21T00:45:56;12.93;;;8.10;;
5805;SDS011;2929;50.810;8.342;2022-08-21T00:48:24;10.60;;;8.07;;
5805;SDS011;2929;50.810;8.342;2022-08-21T00:50:52;8.30;;;6.70;;
5805;SDS011;2929;50.810;8.342;2022-08-21T00:53:24;12.30;;;7.63;;
5805;SDS011;2929;50.810;8.342;2022-08-21T00:55:52;10.83;;;7.50;;
5805;SDS011;2929;50.810;8.342;2022-08-21T00:58:20;11.60;;;8.13;;
5805;SDS011;2929;50.810;8.342;2022-08-21T01:00:48;9.00;;;6.80;;
5805;SDS011;2929;50.810;8.342;2022-08-21T01:03:16;16.30;;;8.70;;
5805;SDS011;2929;50.810;8.342;2022-08-21T01:05:45;9.70;;;7.37;;
5805;SDS011;2929;50.810;8.342;2022-08-21T01:08:13;11.87;;;7.57;;
5805;SDS011;2929;50.810;8.342;2022-08-21T01:10:43;13.77;;;7.90;;
5805;SDS011;2929;50.810;8.342;2022-08-21T01:13:11;13.87;;;8.97;;
5805;SDS011;2929;50.810;8.342;2022-08-21T01:15:42;10.57;;;7.80;;
5805;SDS011;2929;50.810;8.342;2022-08-21T01:18:11;12.20;;;8.50;;
5805;SDS011;2929;50.810;8.342;2022-08-21T01:20:41;15.53;;;8.50;;
5805;SDS011;2929;50.810;8.342;2022-08-21T01:23:11;11.77;;;7.83;;
5805;SDS011;2929;50.810;8.342;2022-08-21T01:25:39;13.37;;;8.63;;
5805;SDS011;2929;50.810;8.342;2022-08-21T01:28:06;16.60;;;8.53;;
5805;SDS011;2929;50.810;8.342;2022-08-21T01:30:40;12.83;;;8.10;;
5805;SDS011;2929;50.810;8.342;2022-08-21T01:33:09;17.50;;;8.77;;
5805;SDS011;2929;50.810;8.342;2022-08-21T01:35:37;12.07;;;8.20;;
5805;SDS011;2929;50.810;8.342;2022-08-21T01:38:04;11.13;;;8.53;;
5805;SDS011;2929;50.810;8.342;2022-08-21T01:40:33;11.10;;;7.70;;
5805;SDS011;2929;50.810;8.342;2022-08-21T01:43:00;12.43;;;8.30;;
5805;SDS011;2929;50.810;8.342;2022-08-21T01:45:28;10.97;;;8.40;;
5805;SDS011;2929;50.810;8.342;2022-08-21T01:47:55;12.17;;;8.00;;
5805;SDS011;2929;50.810;8.342;2022-08-21T01:50:22;12.33;;;8.97;;
5805;SDS011;2929;50.810;8.342;2022-08-21T01:52:50;10.80;;;8.13;;
5805;SDS011;2929;50.810;8.342;2022-08-21T01:55:18;15.07;;;7.83;;
5805;SDS011;2929;50.810;8.342;2022-08-21T01:57:47;11.20;;;7.80;;
5805;SDS011;2929;50.810;8.342;2022-08-21T02:00:16;14.63;;;8.07;;
5805;SDS011;2929;50.810;8.342;2022-08-21T02:02:47;10.93;;;7.87;;
5805;SDS011;2929;50.810;8.342;2022-08-21T02:05:15;12.20;;;8.37;;
5805;SDS011;2929;50.810;8.342;2022-08-21T02:07:44;16.77;;;9.07;;
5805;SDS011;2929;50.810;8.342;2022-08-21T02:10:13;11.60;;;8.50;;
5805;SDS011;2929;50.810;8.342;2022-08-21T02:12:42;14.57;;;8.30;;
5805;SDS011;2929;50.810;8.342;2022-08-21T02:15:10;14.13;;;8.60;;
5805;SDS011;2929;50.810;8.342;2022-08-21T02:17:38;11.90;;;8.97;;
5805;SDS011;2929;50.810;8.342;2022-08-21T02:20:08;21.17;;;8.77;;
5805;SDS011;2929;50.810;8.342;2022-08-21T02:22:36;11.27;;;8.60;;
5805;SDS011;2929;50.810;8.342;2022-08-21T02:25:03;15.60;;;8.43;;
5805;SDS011;2929;50.810;8.342;2022-08-21T02:27:36;14.90;;;9.93;;
5805;SDS011;2929;50.810;8.342;2022-08-21T02:30:05;13.10;;;9.10;;
5805;SDS011;2929;50.810;8.342;2022-08-21T02:32:35;15.67;;;10.07;;
5805;SDS011;2929;50.810;8.342;2022-08-21T02:35:02;12.60;;;9.67;;
5805;SDS011;2929;50.810;8.342;2022-08-21T02:37:29;12.07;;;9.17;;
5805;SDS011;2929;50.810;8.342;2022-08-21T02:39:56;14.00;;;9.80;;
5805;SDS011;2929;50.810;8.342;2022-08-21T02:42:25;13.97;;;8.50;;
5805;SDS011;2929;50.810;8.342;2022-08-21T02:44:52;12.73;;;8.00;;
5805;SDS011;2929;50.810;8.342;2022-08-21T02:47:19;12.87;;;8.27;;
5805;SDS011;2929;50.810;8.342;2022-08-21T02:49:47;12.87;;;8.40;;
5805;SDS011;2929;50.810;8.342;2022-08-21T02:52:14;14.70;;;8.70;;
5805;SDS011;2929;50.810;8.342;2022-08-21T02:54:41;19.10;;;7.57;;
5805;SDS011;2929;50.810;8.342;2022-08-21T02:57:08;13.83;;;9.70;;
5805;SDS011;2929;50.810;8.342;2022-08-21T02:59:35;13.60;;;8.93;;
5805;SDS011;2929;50.810;8.342;2022-08-21T03:02:02;15.03;;;9.43;;
5805;SDS011;2929;50.810;8.342;2022-08-21T03:04:30;16.23;;;9.80;;
5805;SDS011;2929;50.810;8.342;2022-08-21T03:06:58;16.23;;;8.47;;
5805;SDS011;2929;50.810;8.342;2022-08-21T03:09:25;13.50;;;8.20;;
5805;SDS011;2929;50.810;8.342;2022-08-21T03:11:52;15.53;;;8.70;;
5805;SDS011;2929;50.810;8.342;2022-08-21T03:14:19;15.10;;;10.07;;
5805;SDS011;2929;50.810;8.342;2022-08-21T03:16:46;12.63;;;8.83;;
5805;SDS011;2929;50.810;8.342;2022-08-21T03:19:13;16.60;;;8.27;;
5805;SDS011;2929;50.810;8.342;2022-08-21T03:21:40;12.43;;;8.10;;
5805;SDS011;2929;50.810;8.342;2022-08-21T03:24:09;15.83;;;9.10;;
5805;SDS011;2929;50.810;8.342;2022-08-21T03:26:36;11.73;;;7.73;;
5805;SDS011;2929;50.810;8.342;2022-08-21T03:29:03;12.60;;;8.43;;
5805;SDS011;2929;50.810;8.342;2022-08-21T03:31:30;11.27;;;8.23;;
5805;SDS011;2929;50.810;8.342;2022-08-21T03:33:57;13.40;;;7.93;;
5805;SDS011;2929;50.810;8.342;2022-08-21T03:36:25;10.97;;;7.40;;
5805;SDS011;2929;50.810;8.342;2022-08-21T03:38:52;11.83;;;7.70;;
5805;SDS011;2929;50.810;8.342;2022-08-21T03:41:20;13.27;;;9.07;;
5805;SDS011;2929;50.810;8.342;2022-08-21T03:43:47;11.87;;;8.17;;
5805;SDS011;2929;50.810;8.342;2022-08-21T03:46:14;13.33;;;8.10;;
5805;SDS011;2929;50.810;8.342;2022-08-21T03:48:41;14.33;;;7.73;;
5805;SDS011;2929;50.810;8.342;2022-08-21T03:51:09;11.80;;;7.47;;
5805;SDS011;2929;50.810;8.342;2022-08-21T03:53:36;10.60;;;7.67;;
5805;SDS011;2929;50.810;8.342;2022-08-21T03:56:04;14.60;;;9.80;;
5805;SDS011;2929;50.810;8.342;2022-08-21T03:58:33;12.33;;;8.40;;
5805;SDS011;2929;50.810;8.342;2022-08-21T04:01:00;15.00;;;8.73;;
5805;SDS011;2929;50.810;8.342;2022-08-21T04:03:29;13.50;;;7.60;;
5805;SDS011;2929;50.810;8.342;2022-08-21T04:05:56;11.93;;;8.00;;
5805;SDS011;2929;50.810;8.342;2022-08-21T04:08:24;12.60;;;8.30;;
5805;SDS011;2929;50.810;8.342;2022-08-21T04:10:52;11.73;;;8.30;;
5805;SDS011;2929;50.810;8.342;2022-08-21T04:13:21;13.57;;;8.10;;
5805;SDS011;2929;50.810;8.342;2022-08-21T04:15:50;12.53;;;8.80;;
5805;SDS011;2929;50.810;8.342;2022-08-21T04:18:17;17.77;;;8.37;;
5805;SDS011;2929;50.810;8.342;2022-08-21T04:20:44;16.20;;;8.33;;
5805;SDS011;2929;50.810;8.342;2022-08-21T04:23:14;13.80;;;9.20;;
5805;SDS011;2929;50.810;8.342;2022-08-21T04:25:42;11.40;;;7.83;;
5805;SDS011;2929;50.810;8.342;2022-08-21T04:28:09;10.93;;;7.90;;
5805;SDS011;2929;50.810;8.342;2022-08-21T04:30:36;12.53;;;7.30;;
5805;SDS011;2929;50.810;8.342;2022-08-21T04:33:05;13.20;;;8.50;;
5805;SDS011;2929;50.810;8.342;2022-08-21T04:35:32;12.27;;;8.23;;
5805;SDS011;2929;50.810;8.342;2022-08-21T04:37:59;14.20;;;10.40;;
5805;SDS011;2929;50.810;8.342;2022-08-21T04:40:27;15.03;;;8.87;;
5805;SDS011;2929;50.810;8.342;2022-08-21T04:42:55;16.30;;;8.97;;
5805;SDS011;2929;50.810;8.342;2022-08-21T04:45:25;12.73;;;8.20;;
5805;SDS011;2929;50.810;8.342;2022-08-21T04:47:55;14.87;;;8.27;;
5805;SDS011;2929;50.810;8.342;2022-08-21T04:50:26;15.73;;;9.30;;
5805;SDS011;2929;50.810;8.342;2022-08-21T04:53:03;10.63;;;7.80;;
5805;SDS011;2929;50.810;8.342;2022-08-21T04:55:31;13.40;;;8.23;;
5805;SDS011;2929;50.810;8.342;2022-08-21T04:57:59;13.47;;;8.83;;
5805;SDS011;2929;50.810;8.342;2022-08-21T05:00:27;14.03;;;8.83;;
5805;SDS011;2929;50.810;8.342;2022-08-21T05:02:54;12.47;;;8.10;;
5805;SDS011;2929;50.810;8.342;2022-08-21T05:05:25;16.00;;;7.63;;
5805;SDS011;2929;50.810;8.342;2022-08-21T05:07:54;14.23;;;7.77;;
5805;SDS011;2929;50.810;8.342;2022-08-21T05:10:22;18.60;;;8.80;;
5805;SDS011;2929;50.810;8.342;2022-08-21T05:12:50;15.43;;;8.87;;
5805;SDS011;2929;50.810;8.342;2022-08-21T05:15:17;11.70;;;8.60;;
5805;SDS011;2929;50.810;8.342;2022-08-21T05:17:44;9.73;;;7.60;;
5805;SDS011;2929;50.810;8.342;2022-08-21T05:20:12;13.27;;;8.73;;
5805;SDS011;2929;50.810;8.342;2022-08-21T05:22:41;13.60;;;8.47;;
5805;SDS011;2929;50.810;8.342;2022-08-21T05:25:09;12.03;;;7.53;;
5805;SDS011;2929;50.810;8.342;2022-08-21T05:27:36;15.60;;;7.57;;
5805;SDS011;2929;50.810;8.342;2022-08-21T05:30:04;15.33;;;7.80;;
5805;SDS011;2929;50.810;8.342;2022-08-21T05:32:33;19.07;;;8.10;;
5805;SDS011;2929;50.810;8.342;2022-08-21T05:35:00;12.90;;;8.27;;
5805;SDS011;2929;50.810;8.342;2022-08-21T05:37:27;15.37;;;8.47;;
5805;SDS011;2929;50.810;8.342;2022-08-21T05:39:56;12.67;;;8.43;;
5805;SDS011;2929;50.810;8.342;2022-08-21T05:42:23;21.80;;;8.30;;
5805;SDS011;2929;50.810;8.342;2022-08-21T05:44:50;15.90;;;8.53;;
5805;SDS011;2929;50.810;8.342;2022-08-21T05:47:17;11.40;;;7.27;;
5805;SDS011;2929;50.810;8.342;2022-08-21T05:49:43;11.77;;;7.63;;
5805;SDS011;2929;50.810;8.342;2022-08-21T05:52:10;10.97;;;7.83;;
5805;SDS011;2929;50.810;8.342;2022-08-21T05:54:37;10.07;;;6.70;;
5805;SDS011;2929;50.810;8.342;2022-08-21T05:57:06;15.83;;;7.40;;
5805;SDS011;2929;50.810;8.342;2022-08-21T05:59:33;14.13;;;7.60;;
5805;SDS011;2929;50.810;8.342;2022-08-21T06:02:01;12.20;;;7.23;;
5805;SDS011;2929;50.810;8.342;2022-08-21T06:04:28;12.70;;;7.23;;
5805;SDS011;2929;50.810;8.342;2022-08-21T06:06:55;11.10;;;7.13;;
5805;SDS011;2929;50.810;8.342;2022-08-21T06:09:22;13.20;;;7.90;;
5805;SDS011;2929;50.810;8.342;2022-08-21T06:11:49;8.97;;;6.80;;
5805;SDS011;2929;50.810;8.342;2022-08-21T06:14:18;15.53;;;8.23;;
5805;SDS011;2929;50.810;8.342;2022-08-21T06:16:45;12.20;;;7.33;;
5805;SDS011;2929;50.810;8.342;2022-08-21T06:19:12;16.00;;;6.63;;
5805;SDS011;2929;50.810;8.342;2022-08-21T06:21:39;15.73;;;7.60;;
5805;SDS011;2929;50.810;8.342;2022-08-21T06:24:06;10.03;;;6.87;;
5805;SDS011;2929;50.810;8.342;2022-08-21T06:26:33;11.27;;;6.77;;
5805;SDS011;2929;50.810;8.342;2022-08-21T06:29:00;24.03;;;8.80;;
5805;SDS011;2929;50.810;8.342;2022-08-21T06:31:28;11.70;;;6.47;;
5805;SDS011;2929;50.810;8.342;2022-08-21T06:33:55;10.40;;;6.83;;
5805;SDS011;2929;50.810;8.342;2022-08-21T06:36:23;15.03;;;7.40;;
5805;SDS011;2929;50.810;8.342;2022-08-21T06:38:50;19.63;;;7.20;;
5805;SDS011;2929;50.810;8.342;2022-08-21T06:41:17;15.43;;;7.13;;
5805;SDS011;2929;50.810;8.342;2022-08-21T06:43:44;12.47;;;7.27;;
5805;SDS011;2929;50.810;8.342;2022-08-21T06:46:11;13.93;;;7.17;;
5805;SDS011;2929;50.810;8.342;2022-08-21T06:48:39;16.63;;;6.50;;
5805;SDS011;2929;50.810;8.342;2022-08-21T06:51:06;21.07;;;7.27;;
5805;SDS011;2929;50.810;8.342;2022-08-21T06:53:34;12.63;;;7.60;;
5805;SDS011;2929;50.810;8.342;2022-08-21T06:56:01;12.13;;;6.63;;
5805;SDS011;2929;50.810;8.342;2022-08-21T06:58:28;17.90;;;7.63;;
5805;SDS011;2929;50.810;8.342;2022-08-21T07:00:56;13.90;;;7.60;;
5805;SDS011;2929;50.810;8.342;2022-08-21T07:03:24;12.00;;;7.47;;
5805;SDS011;2929;50.810;8.342;2022-08-21T07:05:54;11.33;;;7.00;;
5805;SDS011;2929;50.810;8.342;2022-08-21T07:08:23;16.90;;;7.80;;
5805;SDS011;2929;50.810;8.342;2022-08-21T07:10:51;14.40;;;8.30;;
5805;SDS011;2929;50.810;8.342;2022-08-21T07:13:19;15.47;;;7.70;;
5805;SDS011;2929;50.810;8.342;2022-08-21T07:15:46;13.50;;;7.10;;
5805;SDS011;2929;50.810;8.342;2022-08-21T07:18:13;20.93;;;7.70;;
5805;SDS011;2929;50.810;8.342;2022-08-21T07:20:41;10.53;;;7.10;;
5805;SDS011;2929;50.810;8.342;2022-08-21T07:23:10;11.80;;;6.90;;
5805;SDS011;2929;50.810;8.342;2022-08-21T07:25:42;19.00;;;8.03;;
5805;SDS011;2929;50.810;8.342;2022-08-21T07:28:09;17.53;;;8.97;;
5805;SDS011;2929;50.810;8.342;2022-08-21T07:30:36;16.33;;;7.23;;
5805;SDS011;2929;50.810;8.342;2022-08-21T07:33:03;16.67;;;7.07;;
5805;SDS011;2929;50.810;8.342;2022-08-21T07:35:30;15.40;;;7.63;;
5805;SDS011;2929;50.810;8.342;2022-08-21T07:37:58;12.37;;;7.50;;
5805;SDS011;2929;50.810;8.342;2022-08-21T07:40:26;17.67;;;6.60;;
5805;SDS011;2929;50.810;8.342;2022-08-21T07:42:53;16.03;;;6.93;;
5805;SDS011;2929;50.810;8.342;2022-08-21T07:45:21;15.80;;;6.40;;
5805;SDS011;2929;50.810;8.342;2022-08-21T07:47:49;18.00;;;5.70;;
5805;SDS011;2929;50.810;8.342;2022-08-21T07:50:17;12.83;;;5.97;;
5805;SDS011;2929;50.810;8.342;2022-08-21T07:52:45;37.93;;;6.23;;
5805;SDS011;2929;50.810;8.342;2022-08-21T07:55:13;11.37;;;5.47;;
5805;SDS011;2929;50.810;8.342;2022-08-21T07:57:43;14.27;;;6.30;;
5805;SDS011;2929;50.810;8.342;2022-08-21T08:00:11;12.77;;;5.57;;
5805;SDS011;2929;50.810;8.342;2022-08-21T08:02:40;15.30;;;6.47;;
5805;SDS011;2929;50.810;8.342;2022-08-21T08:05:12;11.37;;;6.07;;
5805;SDS011;2929;50.810;8.342;2022-08-21T08:07:39;12.10;;;6.20;;
5805;SDS011;2929;50.810;8.342;2022-08-21T08:10:06;12.93;;;5.87;;
5805;SDS011;2929;50.810;8.342;2022-08-21T08:12:35;16.93;;;6.53;;
5805;SDS011;2929;50.810;8.342;2022-08-21T08:15:05;11.33;;;5.97;;
5805;SDS011;2929;50.810;8.342;2022-08-21T08:17:34;14.37;;;6.20;;
5805;SDS011;2929;50.810;8.342;2022-08-21T08:20:03;17.27;;;5.80;;
5805;SDS011;2929;50.810;8.342;2022-08-21T08:22:30;11.70;;;5.50;;
5805;SDS011;2929;50.810;8.342;2022-08-21T08:24:57;14.50;;;5.23;;
5805;SDS011;2929;50.810;8.342;2022-08-21T08:27:24;12.37;;;5.40;;
5805;SDS011;2929;50.810;8.342;2022-08-21T08:29:51;9.50;;;5.10;;
5805;SDS011;2929;50.810;8.342;2022-08-21T08:32:20;15.40;;;4.90;;
5805;SDS011;2929;50.810;8.342;2022-08-21T08:34:48;15.33;;;5.10;;
5805;SDS011;2929;50.810;8.342;2022-08-21T08:37:16;13.57;;;4.73;;
5805;SDS011;2929;50.810;8.342;2022-08-21T08:39:44;10.87;;;4.03;;
5805;SDS011;2929;50.810;8.342;2022-08-21T08:42:12;16.73;;;5.50;;
5805;SDS011;2929;50.810;8.342;2022-08-21T08:44:40;12.40;;;4.80;;
5805;SDS011;2929;50.810;8.342;2022-08-21T08:47:08;13.53;;;4.87;;
5805;SDS011;2929;50.810;8.342;2022-08-21T08:49:39;11.03;;;3.80;;
5805;SDS011;2929;50.810;8.342;2022-08-21T08:52:15;9.00;;;4.30;;
5805;SDS011;2929;50.810;8.342;2022-08-21T08:54:47;13.30;;;4.70;;
5805;SDS011;2929;50.810;8.342;2022-08-21T08:57:20;9.07;;;4.30;;
5805;SDS011;2929;50.810;8.342;2022-08-21T08:59:49;8.50;;;3.83;;
5805;SDS011;2929;50.810;8.342;2022-08-21T09:02:18;9.40;;;2.90;;
5805;SDS011;2929;50.810;8.342;2022-08-21T09:04:50;7.87;;;3.63;;
5805;SDS011;2929;50.810;8.342;2022-08-21T09:07:20;6.67;;;2.87;;
5805;SDS011;2929;50.810;8.342;2022-08-21T09:10:02;8.60;;;2.97;;
5805;SDS011;2929;50.810;8.342;2022-08-21T09:12:37;10.10;;;2.93;;
5805;SDS011;2929;50.810;8.342;2022-08-21T09:15:13;19.43;;;4.20;;
5805;SDS011;2929;50.810;8.342;2022-08-21T09:20:57;6.50;;;2.63;;
5805;SDS011;2929;50.810;8.342;2022-08-21T09:23:39;8.63;;;3.10;;
5805;SDS011;2929;50.810;8.342;2022-08-21T09:26:13;9.03;;;3.67;;
5805;SDS011;2929;50.810;8.342;2022-08-21T09:28:42;13.80;;;3.40;;
5805;SDS011;2929;50.810;8.342;2022-08-21T09:31:11;11.10;;;3.30;;
5805;SDS011;2929;50.810;8.342;2022-08-21T09:33:46;5.70;;;2.70;;
5805;SDS011;2929;50.810;8.342;2022-08-21T09:36:22;11.07;;;3.23;;
5805;SDS011;2929;50.810;8.342;2022-08-21T09:38:54;7.90;;;3.03;;
5805;SDS011;2929;50.810;8.342;2022-08-21T09:41:26;9.57;;;3.50;;
5805;SDS011;2929;50.810;8.342;2022-08-21T09:43:57;5.10;;;1.70;;
5805;SDS011;2929;50.810;8.342;2022-08-21T09:46:24;10.63;;;3.60;;
5805;SDS011;2929;50.810;8.342;2022-08-21T09:48:54;6.00;;;2.80;;
5805;SDS011;2929;50.810;8.342;2022-08-21T09:51:24;4.33;;;2.33;;
5805;SDS011;2929;50.810;8.342;2022-08-21T09:53:54;7.70;;;2.80;;
5805;SDS011;2929;50.810;8.342;2022-08-21T09:56:28;8.20;;;2.43;;
5805;SDS011;2929;50.810;8.342;2022-08-21T09:59:15;12.60;;;3.70;;
5805;SDS011;2929;50.810;8.342;2022-08-21T10:01:45;8.17;;;2.50;;
5805;SDS011;2929;50.810;8.342;2022-08-21T10:04:15;5.40;;;2.53;;
5805;SDS011;2929;50.810;8.342;2022-08-21T10:06:49;5.37;;;1.90;;
5805;SDS011;2929;50.810;8.342;2022-08-21T10:09:17;6.50;;;2.13;;
5805;SDS011;2929;50.810;8.342;2022-08-21T10:11:49;8.30;;;2.70;;
5805;SDS011;2929;50.810;8.342;2022-08-21T10:14:29;4.97;;;2.00;;
5805;SDS011;2929;50.810;8.342;2022-08-21T10:17:07;7.53;;;2.00;;
5805;SDS011;2929;50.810;8.342;2022-08-21T10:19:43;5.27;;;1.67;;
5805;SDS011;2929;50.810;8.342;2022-08-21T10:22:21;4.50;;;1.80;;
5805;SDS011;2929;50.810;8.342;2022-08-21T10:24:58;3.60;;;1.70;;
5805;SDS011;2929;50.810;8.342;2022-08-21T10:27:33;4.17;;;2.30;;
5805;SDS011;2929;50.810;8.342;2022-08-21T10:30:08;6.07;;;2.30;;
5805;SDS011;2929;50.810;8.342;2022-08-21T10:32:50;5.93;;;2.27;;
5805;SDS011;2929;50.810;8.342;2022-08-21T10:35:30;5.93;;;1.77;;
5805;SDS011;2929;50.810;8.342;2022-08-21T10:38:17;3.50;;;1.97;;
5805;SDS011;2929;50.810;8.342;2022-08-21T10:41:11;3.53;;;1.70;;
5805;SDS011;2929;50.810;8.342;2022-08-21T10:43:48;6.50;;;2.50;;
5805;SDS011;2929;50.810;8.342;2022-08-21T10:46:25;9.63;;;2.37;;
5805;SDS011;2929;50.810;8.342;2022-08-21T10:49:13;6.37;;;2.30;;
5805;SDS011;2929;50.810;8.342;2022-08-21T10:51:48;2.77;;;1.90;;
5805;SDS011;2929;50.810;8.342;2022-08-21T10:54:23;5.30;;;1.93;;
5805;SDS011;2929;50.810;8.342;2022-08-21T10:57:02;4.77;;;1.70;;
5805;SDS011;2929;50.810;8.342;2022-08-21T10:59:38;8.33;;;2.30;;
5805;SDS011;2929;50.810;8.342;2022-08-21T11:02:11;10.20;;;2.00;;
5805;SDS011;2929;50.810;8.342;2022-08-21T11:04:48;5.40;;;2.00;;
5805;SDS011;2929;50.810;8.342;2022-08-21T11:07:21;4.90;;;2.10;;
5805;SDS011;2929;50.810;8.342;2022-08-21T11:09:56;2.73;;;1.47;;
5805;SDS011;2929;50.810;8.342;2022-08-21T11:12:29;3.80;;;1.67;;
5805;SDS011;2929;50.810;8.342;2022-08-21T11:15:15;3.17;;;1.70;;
5805;SDS011;2929;50.810;8.342;2022-08-21T11:18:01;3.80;;;1.73;;
5805;SDS011;2929;50.810;8.342;2022-08-21T11:20:43;4.93;;;2.00;;
5805;SDS011;2929;50.810;8.342;2022-08-21T11:23:17;4.93;;;2.10;;
5805;SDS011;2929;50.810;8.342;2022-08-21T11:25:50;5.00;;;2.00;;
5805;SDS011;2929;50.810;8.342;2022-08-21T11:28:22;5.30;;;1.80;;
5805;SDS011;2929;50.810;8.342;2022-08-21T11:30:56;4.17;;;1.53;;
5805;SDS011;2929;50.810;8.342;2022-08-21T11:33:36;9.17;;;2.80;;
5805;SDS011;2929;50.810;8.342;2022-08-21T11:36:15;2.70;;;1.73;;
5805;SDS011;2929;50.810;8.342;2022-08-21T11:38:49;5.10;;;1.80;;
5805;SDS011;2929;50.810;8.342;2022-08-21T11:41:28;2.23;;;1.40;;
5805;SDS011;2929;50.810;8.342;2022-08-21T11:43:59;3.40;;;1.53;;
5805;SDS011;2929;50.810;8.342;2022-08-21T11:46:36;3.40;;;1.73;;
5805;SDS011;2929;50.810;8.342;2022-08-21T11:52:07;7.77;;;1.70;;
5805;SDS011;2929;50.810;8.342;2022-08-21T11:54:43;3.30;;;1.70;;
5805;SDS011;2929;50.810;8.342;2022-08-21T11:57:17;4.77;;;1.70;;
5805;SDS011;2929;50.810;8.342;2022-08-21T11:59:49;3.83;;;1.73;;
5805;SDS011;2929;50.810;8.342;2022-08-21T12:02:20;4.40;;;1.93;;
5805;SDS011;2929;50.810;8.342;2022-08-21T12:04:51;5.07;;;1.60;;
5805;SDS011;2929;50.810;8.342;2022-08-21T12:07:32;4.93;;;1.30;;
5805;SDS011;2929;50.810;8.342;2022-08-21T12:10:01;7.97;;;1.50;;
5805;SDS011;2929;50.810;8.342;2022-08-21T12:12:31;5.93;;;1.70;;
5805;SDS011;2929;50.810;8.342;2022-08-21T12:15:06;4.90;;;2.27;;
5805;SDS011;2929;50.810;8.342;2022-08-21T12:17:52;1.80;;;1.47;;
5805;SDS011;2929;50.810;8.342;2022-08-21T12:20:35;3.57;;;1.40;;
5805;SDS011;2929;50.810;8.342;2022-08-21T12:23:16;3.10;;;1.77;;
5805;SDS011;2929;50.810;8.342;2022-08-21T12:26:03;4.50;;;1.40;;
5805;SDS011;2929;50.810;8.342;2022-08-21T12:28:51;3.80;;;1.50;;
5805;SDS011;2929;50.810;8.342;2022-08-21T12:31:36;2.17;;;1.37;;
5805;SDS011;2929;50.810;8.342;2022-08-21T12:34:14;3.70;;;1.63;;
5805;SDS011;2929;50.810;8.342;2022-08-21T12:36:44;2.83;;;1.60;;
5805;SDS011;2929;50.810;8.342;2022-08-21T12:39:14;2.60;;;1.30;;
5805;SDS011;2929;50.810;8.342;2022-08-21T12:41:48;4.20;;;1.60;;
5805;SDS011;2929;50.810;8.342;2022-08-21T12:44:22;1.80;;;1.40;;
5805;SDS011;2929;50.810;8.342;2022-08-21T12:46:55;3.00;;;1.50;;
5805;SDS011;2929;50.810;8.342;2022-08-21T12:49:26;5.13;;;1.60;;
5805;SDS011;2929;50.810;8.342;2022-08-21T12:51:59;3.10;;;1.43;;
5805;SDS011;2929;50.810;8.342;2022-08-21T12:54:36;3.70;;;1.50;;
5805;SDS011;2929;50.810;8.342;2022-08-21T12:57:06;4.73;;;1.80;;
5805;SDS011;2929;50.810;8.342;2022-08-21T12:59:38;1.63;;;1.20;;
5805;SDS011;2929;50.810;8.342;2022-08-21T13:02:10;1.87;;;1.40;;
5805;SDS011;2929;50.810;8.342;2022-08-21T13:04:44;1.77;;;1.03;;
5805;SDS011;2929;50.810;8.342;2022-08-21T13:07:15;2.60;;;1.30;;
5805;SDS011;2929;50.810;8.342;2022-08-21T13:09:56;2.40;;;1.20;;
5805;SDS011;2929;50.810;8.342;2022-08-21T13:12:25;2.30;;;1.40;;
5805;SDS011;2929;50.810;8.342;2022-08-21T13:14:56;2.80;;;1.57;;
5805;SDS011;2929;50.810;8.342;2022-08-21T13:17:25;4.60;;;2.07;;
5805;SDS011;2929;50.810;8.342;2022-08-21T13:19:57;2.50;;;1.43;;
5805;SDS011;2929;50.810;8.342;2022-08-21T13:22:26;6.17;;;1.67;;
5805;SDS011;2929;50.810;8.342;2022-08-21T13:24:54;3.33;;;1.43;;
5805;SDS011;2929;50.810;8.342;2022-08-21T13:27:22;3.70;;;1.90;;
5805;SDS011;2929;50.810;8.342;2022-08-21T13:30:08;4.00;;;1.53;;
5805;SDS011;2929;50.810;8.342;2022-08-21T13:32:40;2.00;;;1.20;;
5805;SDS011;2929;50.810;8.342;2022-08-21T13:35:11;2.30;;;1.43;;
5805;SDS011;2929;50.810;8.342;2022-08-21T13:37:41;5.90;;;1.53;;
5805;SDS011;2929;50.810;8.342;2022-08-21T13:40:10;4.60;;;1.43;;
5805;SDS011;2929;50.810;8.342;2022-08-21T13:42:41;1.63;;;1.30;;
5805;SDS011;2929;50.810;8.342;2022-08-21T13:45:14;4.07;;;1.37;;
5805;SDS011;2929;50.810;8.342;2022-08-21T13:47:44;2.73;;;1.30;;
5805;SDS011;2929;50.810;8.342;2022-08-21T13:50:13;5.60;;;1.70;;
5805;SDS011;2929;50.810;8.342;2022-08-21T13:52:47;7.90;;;2.03;;
5805;SDS011;2929;50.810;8.342;2022-08-21T13:55:33;2.90;;;1.43;;
5805;SDS011;2929;50.810;8.342;2022-08-21T13:58:03;7.03;;;2.07;;
5805;SDS011;2929;50.810;8.342;2022-08-21T14:00:33;3.90;;;1.33;;
5805;SDS011;2929;50.810;8.342;2022-08-21T14:03:04;4.87;;;1.73;;
5805;SDS011;2929;50.810;8.342;2022-08-21T14:05:33;3.20;;;1.40;;
5805;SDS011;2929;50.810;8.342;2022-08-21T14:08:06;2.63;;;1.60;;
5805;SDS011;2929;50.810;8.342;2022-08-21T14:10:40;3.60;;;1.30;;
5805;SDS011;2929;50.810;8.342;2022-08-21T14:13:20;5.10;;;1.37;;
5805;SDS011;2929;50.810;8.342;2022-08-21T14:15:58;3.53;;;1.30;;
5805;SDS011;2929;50.810;8.342;2022-08-21T14:18:26;2.33;;;1.77;;
5805;SDS011;2929;50.810;8.342;2022-08-21T14:21:03;6.83;;;1.20;;
5805;SDS011;2929;50.810;8.342;2022-08-21T14:23:31;1.83;;;1.17;;
5805;SDS011;2929;50.810;8.342;2022-08-21T14:25:58;3.60;;;1.60;;
5805;SDS011;2929;50.810;8.342;2022-08-21T14:28:29;3.17;;;1.20;;
5805;SDS011;2929;50.810;8.342;2022-08-21T14:31:09;3.93;;;1.50;;
5805;SDS011;2929;50.810;8.342;2022-08-21T14:33:39;3.63;;;1.37;;
5805;SDS011;2929;50.810;8.342;2022-08-21T14:36:06;23.30;;;2.33;;
5805;SDS011;2929;50.810;8.342;2022-08-21T14:38:35;3.80;;;1.50;;
5805;SDS011;2929;50.810;8.342;2022-08-21T14:41:04;2.83;;;1.20;;
5805;SDS011;2929;50.810;8.342;2022-08-21T14:43:42;3.93;;;1.77;;
5805;SDS011;2929;50.810;8.342;2022-08-21T14:46:10;3.03;;;1.67;;
5805;SDS011;2929;50.810;8.342;2022-08-21T14:48:38;3.83;;;1.53;;
5805;SDS011;2929;50.810;8.342;2022-08-21T14:51:06;1.63;;;1.13;;
5805;SDS011;2929;50.810;8.342;2022-08-21T14:53:33;2.70;;;1.00;;
5805;SDS011;2929;50.810;8.342;2022-08-21T14:56:00;3.73;;;1.37;;
5805;SDS011;2929;50.810;8.342;2022-08-21T14:58:33;2.73;;;1.20;;
5805;SDS011;2929;50.810;8.342;2022-08-21T15:01:03;2.27;;;1.33;;
5805;SDS011;2929;50.810;8.342;2022-08-21T15:03:33;3.50;;;1.60;;
5805;SDS011;2929;50.810;8.342;2022-08-21T15:06:02;5.07;;;1.30;;
5805;SDS011;2929;50.810;8.342;2022-08-21T15:08:30;4.00;;;1.40;;
5805;SDS011;2929;50.810;8.342;2022-08-21T15:10:58;5.00;;;1.50;;
5805;SDS011;2929;50.810;8.342;2022-08-21T15:13:26;1.80;;;1.40;;
5805;SDS011;2929;50.810;8.342;2022-08-21T15:15:53;4.30;;;1.40;;
5805;SDS011;2929;50.810;8.342;2022-08-21T15:18:21;2.20;;;1.10;;
5805;SDS011;2929;50.810;8.342;2022-08-21T15:20:50;3.50;;;1.23;;
5805;SDS011;2929;50.810;8.342;2022-08-21T15:23:18;3.87;;;1.57;;
5805;SDS011;2929;50.810;8.342;2022-08-21T15:25:46;2.77;;;1.70;;
5805;SDS011;2929;50.810;8.342;2022-08-21T15:28:15;1.40;;;1.07;;
5805;SDS011;2929;50.810;8.342;2022-08-21T15:30:44;5.03;;;1.00;;
5805;SDS011;2929;50.810;8.342;2022-08-21T15:33:12;3.63;;;1.30;;